Ikarus — SWEW — position and weather

sailwx.info

Track history (hours):
 
Tides and Currents Weather Stations Pressure Air Temp Water Temp Dewpoint Dewpoint Depression Visibility Wind Speed Wind Dir Waves Ship Positions

Ikarus

Last reported at 2015-Jun-30 02:22 UTC. Time now 2015-Jun-30 03:32 UTC.
Position N 36°16' W 003°26'.

Length 200 m; draft 6.5 m.

Type: Ship. MMSI: 239513000.

Date/timePositionNaut miles runAvg speedWind from/ knotsBaromVisibWave heightAir tempDewpointWater temp
2015-Jun-30 02:22N 36°16' W 003°26'1314.6
2015-Jun-30 01:30N 36°18' W 003°11'1414.8
2015-Jun-30 00:33N 36°20' W 002°54'1515.0
2015-Jun-29 23:33N 36°23' W 002°35'1515.1
2015-Jun-29 22:33N 36°26' W 002°17'1515.1
2015-Jun-29 21:33N 36°33' W 002°01'1615.7
2015-Jun-29 20:33N 36°43' W 001°46'3716.0
2015-Jun-29 18:16N 37°08' W 001°12'1116.1
2015-Jun-29 17:33N 37°15' W 001°01'1716.5
2015-Jun-29 16:33N 37°26' W 000°45'1615.8
2015-Jun-29 15:33N 37°37' W 000°31'1615.6
2015-Jun-29 14:33N 37°50' W 000°21'1615.7
2015-Jun-29 13:33N 38°03' W 000°10'1615.6
2015-Jun-29 12:34N 38°17' E 000°00'1615.7
2015-Jun-29 11:33N 38°30' E 000°12'1615.7
2015-Jun-29 10:33N 38°43' E 000°23'1715.8
2015-Jun-29 09:28N 38°58' E 000°34'1615.1
2015-Jun-29 08:22N 39°12' E 000°44'1215.1
2015-Jun-29 07:33N 39°23' E 000°51'1615.3
2015-Jun-29 06:32N 39°37' E 001°01'1515.0
2015-Jun-29 05:33N 39°50' E 001°09'1514.8
2015-Jun-29 04:33N 40°03' E 001°19'1514.8
2015-Jun-29 03:33N 40°16' E 001°28'1515.0
2015-Jun-29 02:33N 40°29' E 001°37'1515.3
2015-Jun-29 01:33N 40°43' E 001°47'1515.6
2015-Jun-29 00:33N 40°56' E 001°56'1615.5
2015-Jun-28 23:33N 41°10' E 002°06'1211.8
2015-Jun-28 22:33N 41°22' E 002°11'0 0.4
2015-Jun-28 21:32N 41°22' E 002°11'0 0.0
2015-Jun-28 20:33N 41°22' E 002°11'0 0.0
2015-Jun-28 19:33N 41°22' E 002°11'1 1.5
2015-Jun-28 18:33N 41°20' E 002°10'1211.6
2015-Jun-28 17:33N 41°22' E 002°26'2018.5
2015-Jun-28 16:29N 41°30' E 002°49'4418.7
2015-Jun-28 14:09N 41°49' E 003°42'1118.6
2015-Jun-28 13:33N 41°54' E 003°56'1918.3
2015-Jun-28 12:30N 42°02' E 004°19'2017.7
2015-Jun-28 11:24N 42°11' E 004°43'2018.1
2015-Jun-28 10:18N 42°19' E 005°07'3418.9
2015-Jun-28 08:30N 42°34' E 005°48'1819.6
2015-Jun-28 07:33N 42°42' E 006°11'2419.9
2015-Jun-28 06:20N 42°50' E 006°42'1620.0
2015-Jun-28 05:32N 42°55' E 007°03'6419.9
2015-Jun-28 02:18N 43°13' E 008°28'1519.6
2015-Jun-28 01:33N 43°17' E 008°47'2019.7
2015-Jun-28 00:34N 43°22' E 009°13'2019.8
2015-Jun-27 23:34N 43°28' E 009°39'2019.5
2015-Jun-27 22:34N 43°30' E 010°06'1010.1
2015-Jun-27 21:33N 43°35' E 010°18'0 0.0
2015-Jun-27 20:33N 43°35' E 010°18'0 0.0
2015-Jun-27 19:33N 43°35' E 010°18'0 0.0
2015-Jun-27 18:33N 43°35' E 010°18'0 0.0
2015-Jun-27 17:33N 43°35' E 010°18'0 0.0
2015-Jun-27 16:33N 43°35' E 010°18'0 0.0
2015-Jun-27 15:27N 43°35' E 010°18'0 0.0
2015-Jun-27 14:30N 43°35' E 010°18'0 0.0
2015-Jun-27 13:33N 43°35' E 010°18'0 0.0
2015-Jun-27 12:33N 43°35' E 010°18'0 0.0
2015-Jun-27 11:33N 43°35' E 010°18'0 0.0
2015-Jun-27 10:33N 43°35' E 010°18'0 0.0
2015-Jun-27 09:33N 43°35' E 010°18'0 0.0
2015-Jun-27 08:33N 43°35' E 010°18'0 0.0
2015-Jun-27 07:27N 43°35' E 010°18'0 0.0
2015-Jun-27 06:33N 43°35' E 010°18'0 0.0
2015-Jun-27 05:33N 43°35' E 010°18'0 0.0
2015-Jun-27 04:33N 43°35' E 010°18'0 0.0
2015-Jun-27 03:33N 43°35' E 010°18'0 0.0
2015-Jun-27 02:33N 43°35' E 010°18'0 0.0
2015-Jun-27 01:33N 43°35' E 010°18'0 0.0
2015-Jun-27 00:33N 43°35' E 010°18'0 0.0
2015-Jun-26 23:33N 43°35' E 010°18'0 0.0
2015-Jun-26 22:30N 43°35' E 010°18'0 0.0
2015-Jun-26 21:30N 43°35' E 010°18'0 0.0
2015-Jun-26 20:33N 43°35' E 010°18'0 0.0
2015-Jun-26 19:33N 43°35' E 010°18'0 0.0
2015-Jun-26 18:33N 43°35' E 010°18'0 0.0
2015-Jun-26 17:30N 43°35' E 010°18'0 0.0
2015-Jun-26 16:33N 43°35' E 010°18'0 0.0
2015-Jun-26 15:33N 43°35' E 010°18'0 0.0
2015-Jun-26 14:33N 43°35' E 010°18'0 0.0
2015-Jun-26 13:33N 43°35' E 010°18'0 0.0
2015-Jun-26 12:33N 43°35' E 010°18'0 0.0
2015-Jun-26 11:33N 43°35' E 010°18'0 0.0
2015-Jun-26 10:33N 43°35' E 010°18'0 0.0
2015-Jun-26 09:33N 43°35' E 010°18'0 0.0
2015-Jun-26 08:33N 43°35' E 010°18'0 0.0
2015-Jun-26 07:33N 43°35' E 010°18'0 0.0
2015-Jun-26 06:33N 43°35' E 010°18'0 0.0
2015-Jun-26 05:33N 43°35' E 010°18'0 0.0
2015-Jun-26 04:33N 43°35' E 010°18'0 0.0
2015-Jun-26 03:33N 43°35' E 010°18'0 0.0
2015-Jun-26 02:33N 43°35' E 010°18'0 0.0
2015-Jun-26 01:33N 43°35' E 010°18'0 0.0
2015-Jun-26 00:33N 43°35' E 010°18'0 0.0
2015-Jun-25 23:33N 43°35' E 010°18'0 0.0
2015-Jun-25 22:33N 43°35' E 010°18'0 0.0
2015-Jun-25 21:33N 43°35' E 010°18'0 0.0
2015-Jun-25 20:33N 43°35' E 010°18'0 0.0
2015-Jun-25 19:34N 43°35' E 010°18'2 1.5
2015-Jun-25 18:33N 43°33' E 010°18'1413.9
2015-Jun-25 17:34N 43°24' E 010°04'1919.3
2015-Jun-25 16:33N 43°15' E 009°40'2019.6
2015-Jun-25 15:34N 43°09' E 009°14'2020.2
2015-Jun-25 14:34N 43°03' E 008°48'2020.2
2015-Jun-25 13:33N 42°55' E 008°22'2120.4
2015-Jun-25 12:30N 42°48' E 007°55'1919.8
2015-Jun-25 11:33N 42°42' E 007°31'2019.9
2015-Jun-25 10:33N 42°35' E 007°05'3019.7
2015-Jun-25 09:03N 42°25' E 006°27'1019.7
2015-Jun-25 08:33N 42°22' E 006°15'2019.7
2015-Jun-25 07:33N 42°15' E 005°50'2019.7
2015-Jun-25 06:33N 42°09' E 005°25'2019.7
2015-Jun-25 05:33N 42°02' E 004°60'1919.6
2015-Jun-25 04:33N 41°55' E 004°35'1919.5
2015-Jun-25 03:33N 41°48' E 004°11'1919.4
2015-Jun-25 02:33N 41°41' E 003°46'1919.3
2015-Jun-25 01:33N 41°35' E 003°22'2319.2
2015-Jun-25 00:22N 41°27' E 002°53'1619.7
2015-Jun-24 23:33N 41°21' E 002°33'1817.7
2015-Jun-24 22:33N 41°18' E 002°10'4 3.9
2015-Jun-24 21:30N 41°22' E 002°11'0 0.1
2015-Jun-24 19:33N 41°22' E 002°11'1212.1
2015-Jun-24 18:33N 41°10' E 002°07'2120.8
2015-Jun-24 17:33N 40°51' E 001°54'2121.0
2015-Jun-24 16:33N 40°33' E 001°41'2121.0
2015-Jun-24 15:33N 40°14' E 001°29'2120.6
2015-Jun-24 14:33N 39°56' E 001°17'12820.3
2015-Jun-24 08:14N 38°04' W 000°04'1319.8
2015-Jun-24 07:33N 37°53' W 000°14'2120.6
2015-Jun-24 06:33N 37°36' W 000°28'2020.2
2015-Jun-24 05:33N 37°21' W 000°46'2120.8
2015-Jun-24 04:33N 37°07' W 001°05'2120.2
2015-Jun-24 03:30N 36°53' W 001°25'3919.9
2015-Jun-24 01:33N 36°29' W 002°03'1919.4
2015-Jun-24 00:34N 36°20' W 002°25'2020.4
2015-Jun-23 23:34N 36°16' W 002°49'2821.8
2015-Jun-23 22:15N 36°12' W 003°24'2122.0
2015-Jun-23 21:18N 36°09' W 003°50'131 5.1
2015-Jun-22 19:32N 37°02' W 001°20'1715.4
2015-Jun-22 18:25N 37°13' W 001°04'1315.2
2015-Jun-22 17:33N 37°22' W 000°51'1515.5
2015-Jun-22 16:33N 37°32' W 000°37'1615.8
2015-Jun-22 15:33N 37°45' W 000°25'1615.6
2015-Jun-22 14:33N 37°58' W 000°14'1615.6
2015-Jun-22 13:33N 38°11' W 000°03'1615.6
2015-Jun-22 12:33N 38°24' E 000°08'1615.7
2015-Jun-22 11:30N 38°38' E 000°19'7515.1
2015-Jun-22 06:33N 39°44' E 001°05'1414.4
2015-Jun-22 05:33N 39°56' E 001°14'1414.2
2015-Jun-22 04:33N 40°09' E 001°23'1414.1
2015-Jun-22 03:33N 40°21' E 001°32'1514.8
2015-Jun-22 02:33N 40°34' E 001°41'1515.1
2015-Jun-22 01:33N 40°47' E 001°50'1515.1
2015-Jun-22 00:33N 41°01' E 001°59'1514.9
2015-Jun-21 23:33N 41°14' E 002°09'8 8.1
2015-Jun-21 22:33N 41°22' E 002°11'0 0.0
2015-Jun-21 21:25N 41°22' E 002°11'0 0.0
2015-Jun-21 20:33N 41°22' E 002°11'0 0.0
2015-Jun-21 18:31N 41°22' E 002°11'5 4.8
2015-Jun-21 17:33N 41°19' E 002°15'2318.4
2015-Jun-21 16:17N 41°31' E 002°42'1419.2
2015-Jun-21 15:33N 41°38' E 002°58'1919.1
2015-Jun-21 14:33N 41°49' E 003°19'1919.2
2015-Jun-21 13:33N 41°58' E 003°42'4019.3
2015-Jun-21 11:29N 42°17' E 004°29'2219.0
2015-Jun-21 10:19N 42°27' E 004°56'1418.8
2015-Jun-21 09:33N 42°34' E 005°13'1918.9
2015-Jun-21 08:33N 42°43' E 005°35'10220.3
2015-Jun-21 03:33N 43°09' E 007°49'2120.8
2015-Jun-21 02:33N 43°14' E 008°17'2120.6
2015-Jun-21 01:33N 43°19' E 008°45'2020.3
2015-Jun-21 00:33N 43°24' E 009°12'2020.2
2015-Jun-20 23:33N 43°28' E 009°39'2019.9
2015-Jun-20 22:33N 43°30' E 010°06'1010.0
2015-Jun-20 21:33N 43°35' E 010°18'0 0.0
2015-Jun-20 20:33N 43°35' E 010°18'0 0.0
2015-Jun-20 19:30N 43°35' E 010°18'0 0.0
2015-Jun-20 18:33N 43°35' E 010°18'0 0.0
2015-Jun-20 17:33N 43°35' E 010°18'0 0.0
2015-Jun-20 16:33N 43°35' E 010°18'0 0.0
2015-Jun-20 15:33N 43°35' E 010°18'0 0.0
2015-Jun-20 14:33N 43°35' E 010°18'0 0.0
2015-Jun-20 13:33N 43°35' E 010°18'0 0.0
2015-Jun-20 12:30N 43°35' E 010°18'0 0.0
2015-Jun-20 11:30N 43°35' E 010°18'0 0.0
2015-Jun-20 10:30N 43°35' E 010°18'0 0.0
2015-Jun-20 09:30N 43°35' E 010°18'0 0.0
2015-Jun-20 08:33N 43°35' E 010°18'0 0.0
2015-Jun-20 07:33N 43°35' E 010°18'0 0.0
2015-Jun-20 06:33N 43°35' E 010°18'0 0.0
2015-Jun-20 05:33N 43°35' E 010°18'0 0.0
2015-Jun-20 04:33N 43°35' E 010°18'0 0.0
2015-Jun-20 03:33N 43°35' E 010°18'0 0.0
2015-Jun-20 02:33N 43°35' E 010°18'  
Track history (hours):
 
Tides and Currents Weather Stations Pressure Air Temp Water Temp Dewpoint Dewpoint Depression Visibility Wind Speed Wind Dir Waves Ship Positions

Ikarus

Last reported at 2015-Jun-30 02:22 UTC. Time now 2015-Jun-30 03:32 UTC.
Position N 36°16' W 003°26'.

Length 200 m; draft 6.5 m.

Type: Ship. MMSI: 239513000.

Date/timePositionNaut miles runAvg speedWind from/ knotsBaromVisibWave heightAir tempDewpointWater temp
2015-Jun-30 02:22N 36°16' W 003°26'1314.6
2015-Jun-30 01:30N 36°18' W 003°11'1414.8
2015-Jun-30 00:33N 36°20' W 002°54'1515.0
2015-Jun-29 23:33N 36°23' W 002°35'1515.1
2015-Jun-29 22:33N 36°26' W 002°17'1515.1
2015-Jun-29 21:33N 36°33' W 002°01'1615.7
2015-Jun-29 20:33N 36°43' W 001°46'3716.0
2015-Jun-29 18:16N 37°08' W 001°12'1116.1
2015-Jun-29 17:33N 37°15' W 001°01'1716.5
2015-Jun-29 16:33N 37°26' W 000°45'1615.8
2015-Jun-29 15:33N 37°37' W 000°31'1615.6
2015-Jun-29 14:33N 37°50' W 000°21'1615.7
2015-Jun-29 13:33N 38°03' W 000°10'1615.6
2015-Jun-29 12:34N 38°17' E 000°00'1615.7
2015-Jun-29 11:33N 38°30' E 000°12'1615.7
2015-Jun-29 10:33N 38°43' E 000°23'1715.8
2015-Jun-29 09:28N 38°58' E 000°34'1615.1
2015-Jun-29 08:22N 39°12' E 000°44'1215.1
2015-Jun-29 07:33N 39°23' E 000°51'1615.3
2015-Jun-29 06:32N 39°37' E 001°01'1515.0
2015-Jun-29 05:33N 39°50' E 001°09'1514.8
2015-Jun-29 04:33N 40°03' E 001°19'1514.8
2015-Jun-29 03:33N 40°16' E 001°28'1515.0
2015-Jun-29 02:33N 40°29' E 001°37'1515.3
2015-Jun-29 01:33N 40°43' E 001°47'1515.6
2015-Jun-29 00:33N 40°56' E 001°56'1615.5
2015-Jun-28 23:33N 41°10' E 002°06'1211.8
2015-Jun-28 22:33N 41°22' E 002°11'0 0.4
2015-Jun-28 21:32N 41°22' E 002°11'0 0.0
2015-Jun-28 20:33N 41°22' E 002°11'0 0.0
2015-Jun-28 19:33N 41°22' E 002°11'1 1.5
2015-Jun-28 18:33N 41°20' E 002°10'1211.6
2015-Jun-28 17:33N 41°22' E 002°26'2018.5
2015-Jun-28 16:29N 41°30' E 002°49'4418.7
2015-Jun-28 14:09N 41°49' E 003°42'1118.6
2015-Jun-28 13:33N 41°54' E 003°56'1918.3
2015-Jun-28 12:30N 42°02' E 004°19'2017.7
2015-Jun-28 11:24N 42°11' E 004°43'2018.1
2015-Jun-28 10:18N 42°19' E 005°07'3418.9
2015-Jun-28 08:30N 42°34' E 005°48'1819.6
2015-Jun-28 07:33N 42°42' E 006°11'2419.9
2015-Jun-28 06:20N 42°50' E 006°42'1620.0
2015-Jun-28 05:32N 42°55' E 007°03'6419.9
2015-Jun-28 02:18N 43°13' E 008°28'1519.6
2015-Jun-28 01:33N 43°17' E 008°47'2019.7
2015-Jun-28 00:34N 43°22' E 009°13'2019.8
2015-Jun-27 23:34N 43°28' E 009°39'2019.5
2015-Jun-27 22:34N 43°30' E 010°06'1010.1
2015-Jun-27 21:33N 43°35' E 010°18'0 0.0
2015-Jun-27 20:33N 43°35' E 010°18'0 0.0
2015-Jun-27 19:33N 43°35' E 010°18'0 0.0
2015-Jun-27 18:33N 43°35' E 010°18'0 0.0
2015-Jun-27 17:33N 43°35' E 010°18'0 0.0
2015-Jun-27 16:33N 43°35' E 010°18'0 0.0
2015-Jun-27 15:27N 43°35' E 010°18'0 0.0
2015-Jun-27 14:30N 43°35' E 010°18'0 0.0
2015-Jun-27 13:33N 43°35' E 010°18'0 0.0
2015-Jun-27 12:33N 43°35' E 010°18'0 0.0
2015-Jun-27 11:33N 43°35' E 010°18'0 0.0
2015-Jun-27 10:33N 43°35' E 010°18'0 0.0
2015-Jun-27 09:33N 43°35' E 010°18'0 0.0
2015-Jun-27 08:33N 43°35' E 010°18'0 0.0
2015-Jun-27 07:27N 43°35' E 010°18'0 0.0
2015-Jun-27 06:33N 43°35' E 010°18'0 0.0
2015-Jun-27 05:33N 43°35' E 010°18'0 0.0
2015-Jun-27 04:33N 43°35' E 010°18'0 0.0
2015-Jun-27 03:33N 43°35' E 010°18'0 0.0
2015-Jun-27 02:33N 43°35' E 010°18'0 0.0
2015-Jun-27 01:33N 43°35' E 010°18'0 0.0
2015-Jun-27 00:33N 43°35' E 010°18'0 0.0
2015-Jun-26 23:33N 43°35' E 010°18'0 0.0
2015-Jun-26 22:30N 43°35' E 010°18'0 0.0
2015-Jun-26 21:30N 43°35' E 010°18'0 0.0
2015-Jun-26 20:33N 43°35' E 010°18'0 0.0
2015-Jun-26 19:33N 43°35' E 010°18'0 0.0
2015-Jun-26 18:33N 43°35' E 010°18'0 0.0
2015-Jun-26 17:30N 43°35' E 010°18'0 0.0
2015-Jun-26 16:33N 43°35' E 010°18'0 0.0
2015-Jun-26 15:33N 43°35' E 010°18'0 0.0
2015-Jun-26 14:33N 43°35' E 010°18'0 0.0
2015-Jun-26 13:33N 43°35' E 010°18'0 0.0
2015-Jun-26 12:33N 43°35' E 010°18'0 0.0
2015-Jun-26 11:33N 43°35' E 010°18'0 0.0
2015-Jun-26 10:33N 43°35' E 010°18'0 0.0
2015-Jun-26 09:33N 43°35' E 010°18'0 0.0
2015-Jun-26 08:33N 43°35' E 010°18'0 0.0
2015-Jun-26 07:33N 43°35' E 010°18'0 0.0
2015-Jun-26 06:33N 43°35' E 010°18'0 0.0
2015-Jun-26 05:33N 43°35' E 010°18'0 0.0
2015-Jun-26 04:33N 43°35' E 010°18'0 0.0
2015-Jun-26 03:33N 43°35' E 010°18'0 0.0
2015-Jun-26 02:33N 43°35' E 010°18'0 0.0
2015-Jun-26 01:33N 43°35' E 010°18'0 0.0
2015-Jun-26 00:33N 43°35' E 010°18'0 0.0
2015-Jun-25 23:33N 43°35' E 010°18'0 0.0
2015-Jun-25 22:33N 43°35' E 010°18'0 0.0
2015-Jun-25 21:33N 43°35' E 010°18'0 0.0
2015-Jun-25 20:33N 43°35' E 010°18'0 0.0
2015-Jun-25 19:34N 43°35' E 010°18'2 1.5
2015-Jun-25 18:33N 43°33' E 010°18'1413.9
2015-Jun-25 17:34N 43°24' E 010°04'1919.3
2015-Jun-25 16:33N 43°15' E 009°40'2019.6
2015-Jun-25 15:34N 43°09' E 009°14'2020.2
2015-Jun-25 14:34N 43°03' E 008°48'2020.2
2015-Jun-25 13:33N 42°55' E 008°22'2120.4
2015-Jun-25 12:30N 42°48' E 007°55'1919.8
2015-Jun-25 11:33N 42°42' E 007°31'2019.9
2015-Jun-25 10:33N 42°35' E 007°05'3019.7
2015-Jun-25 09:03N 42°25' E 006°27'1019.7
2015-Jun-25 08:33N 42°22' E 006°15'2019.7
2015-Jun-25 07:33N 42°15' E 005°50'2019.7
2015-Jun-25 06:33N 42°09' E 005°25'2019.7
2015-Jun-25 05:33N 42°02' E 004°60'1919.6
2015-Jun-25 04:33N 41°55' E 004°35'1919.5
2015-Jun-25 03:33N 41°48' E 004°11'1919.4
2015-Jun-25 02:33N 41°41' E 003°46'1919.3
2015-Jun-25 01:33N 41°35' E 003°22'2319.2
2015-Jun-25 00:22N 41°27' E 002°53'1619.7
2015-Jun-24 23:33N 41°21' E 002°33'1817.7
2015-Jun-24 22:33N 41°18' E 002°10'4 3.9
2015-Jun-24 21:30N 41°22' E 002°11'0 0.1
2015-Jun-24 19:33N 41°22' E 002°11'1212.1
2015-Jun-24 18:33N 41°10' E 002°07'2120.8
2015-Jun-24 17:33N 40°51' E 001°54'2121.0
2015-Jun-24 16:33N 40°33' E 001°41'2121.0
2015-Jun-24 15:33N 40°14' E 001°29'2120.6
2015-Jun-24 14:33N 39°56' E 001°17'12820.3
2015-Jun-24 08:14N 38°04' W 000°04'1319.8
2015-Jun-24 07:33N 37°53' W 000°14'2120.6
2015-Jun-24 06:33N 37°36' W 000°28'2020.2
2015-Jun-24 05:33N 37°21' W 000°46'2120.8
2015-Jun-24 04:33N 37°07' W 001°05'2120.2
2015-Jun-24 03:30N 36°53' W 001°25'3919.9
2015-Jun-24 01:33N 36°29' W 002°03'1919.4
2015-Jun-24 00:34N 36°20' W 002°25'2020.4
2015-Jun-23 23:34N 36°16' W 002°49'2821.8
2015-Jun-23 22:15N 36°12' W 003°24'2122.0
2015-Jun-23 21:18N 36°09' W 003°50'131 5.1
2015-Jun-22 19:32N 37°02' W 001°20'1715.4
2015-Jun-22 18:25N 37°13' W 001°04'1315.2
2015-Jun-22 17:33N 37°22' W 000°51'1515.5
2015-Jun-22 16:33N 37°32' W 000°37'1615.8
2015-Jun-22 15:33N 37°45' W 000°25'1615.6
2015-Jun-22 14:33N 37°58' W 000°14'1615.6
2015-Jun-22 13:33N 38°11' W 000°03'1615.6
2015-Jun-22 12:33N 38°24' E 000°08'1615.7
2015-Jun-22 11:30N 38°38' E 000°19'7515.1
2015-Jun-22 06:33N 39°44' E 001°05'1414.4
2015-Jun-22 05:33N 39°56' E 001°14'1414.2
2015-Jun-22 04:33N 40°09' E 001°23'1414.1
2015-Jun-22 03:33N 40°21' E 001°32'1514.8
2015-Jun-22 02:33N 40°34' E 001°41'1515.1
2015-Jun-22 01:33N 40°47' E 001°50'1515.1
2015-Jun-22 00:33N 41°01' E 001°59'1514.9
2015-Jun-21 23:33N 41°14' E 002°09'8 8.1
2015-Jun-21 22:33N 41°22' E 002°11'0 0.0
2015-Jun-21 21:25N 41°22' E 002°11'0 0.0
2015-Jun-21 20:33N 41°22' E 002°11'0 0.0
2015-Jun-21 18:31N 41°22' E 002°11'5 4.8
2015-Jun-21 17:33N 41°19' E 002°15'2318.4
2015-Jun-21 16:17N 41°31' E 002°42'1419.2
2015-Jun-21 15:33N 41°38' E 002°58'1919.1
2015-Jun-21 14:33N 41°49' E 003°19'1919.2
2015-Jun-21 13:33N 41°58' E 003°42'4019.3
2015-Jun-21 11:29N 42°17' E 004°29'2219.0
2015-Jun-21 10:19N 42°27' E 004°56'1418.8
2015-Jun-21 09:33N 42°34' E 005°13'1918.9
2015-Jun-21 08:33N 42°43' E 005°35'10220.3
2015-Jun-21 03:33N 43°09' E 007°49'2120.8
2015-Jun-21 02:33N 43°14' E 008°17'2120.6
2015-Jun-21 01:33N 43°19' E 008°45'2020.3
2015-Jun-21 00:33N 43°24' E 009°12'2020.2
2015-Jun-20 23:33N 43°28' E 009°39'2019.9
2015-Jun-20 22:33N 43°30' E 010°06'1010.0
2015-Jun-20 21:33N 43°35' E 010°18'0 0.0
2015-Jun-20 20:33N 43°35' E 010°18'0 0.0
2015-Jun-20 19:30N 43°35' E 010°18'0 0.0
2015-Jun-20 18:33N 43°35' E 010°18'0 0.0
2015-Jun-20 17:33N 43°35' E 010°18'0 0.0
2015-Jun-20 16:33N 43°35' E 010°18'0 0.0
2015-Jun-20 15:33N 43°35' E 010°18'0 0.0
2015-Jun-20 14:33N 43°35' E 010°18'0 0.0
2015-Jun-20 13:33N 43°35' E 010°18'0 0.0
2015-Jun-20 12:30N 43°35' E 010°18'0 0.0
2015-Jun-20 11:30N 43°35' E 010°18'0 0.0
2015-Jun-20 10:30N 43°35' E 010°18'0 0.0
2015-Jun-20 09:30N 43°35' E 010°18'0 0.0
2015-Jun-20 08:33N 43°35' E 010°18'0 0.0
2015-Jun-20 07:33N 43°35' E 010°18'0 0.0
2015-Jun-20 06:33N 43°35' E 010°18'0 0.0
2015-Jun-20 05:33N 43°35' E 010°18'0 0.0
2015-Jun-20 04:33N 43°35' E 010°18'0 0.0
2015-Jun-20 03:33N 43°35' E 010°18'0 0.0
2015-Jun-20 02:33N 43°35' E 010°18'  

Dump ship's entire track history